createdAt,value
2022-10-07T00:00:54.353Z,100.00
2022-10-07T00:03:35.823Z,100.00
2022-10-07T00:06:23.058Z,100.00
2022-10-07T00:09:09.487Z,100.00
2022-10-07T00:11:44.612Z,100.00
2022-10-07T00:14:22.827Z,100.00
2022-10-07T00:16:54.949Z,100.00
2022-10-07T00:19:24.955Z,100.00
2022-10-07T00:22:01.344Z,100.00
2022-10-07T00:24:31.317Z,100.00
2022-10-07T00:27:13.706Z,100.00
2022-10-07T00:29:48.787Z,100.00
2022-10-07T00:32:23.877Z,100.00
2022-10-07T00:35:02.206Z,100.00
2022-10-07T00:37:37.027Z,100.00
2022-10-07T00:40:13.273Z,100.00
2022-10-07T00:42:47.388Z,100.00
2022-10-07T00:45:27.261Z,100.00
2022-10-07T00:48:05.028Z,100.00
2022-10-07T00:50:44.762Z,100.00
2022-10-07T00:53:20.797Z,100.00
2022-10-07T00:56:04.667Z,100.00
2022-10-07T00:58:50.466Z,100.00
2022-10-07T01:01:28.608Z,100.00
2022-10-07T01:04:04.294Z,100.00
2022-10-07T01:06:40.525Z,100.00
2022-10-07T01:09:14.217Z,100.00
2022-10-07T01:12:02.187Z,100.00
2022-10-07T01:14:41.450Z,100.00
2022-10-07T01:17:22.151Z,100.00
2022-10-07T01:20:10.491Z,100.00
2022-10-07T01:23:19.997Z,100.00
2022-10-07T01:26:07.010Z,100.00
2022-10-07T01:28:56.953Z,100.00
2022-10-07T01:31:43.547Z,100.00
2022-10-07T01:34:26.854Z,100.00
2022-10-07T01:37:03.392Z,100.00
2022-10-07T01:39:43.778Z,100.00
2022-10-07T01:42:23.374Z,100.00
2022-10-07T01:44:58.630Z,100.00
2022-10-07T01:47:38.253Z,100.00
2022-10-07T01:50:18.157Z,100.00
2022-10-07T01:53:15.508Z,100.00
2022-10-07T01:56:27.427Z,100.00
2022-10-07T01:59:25.115Z,100.00
2022-10-07T02:02:00.031Z,100.00
2022-10-07T02:04:57.806Z,100.00
2022-10-07T02:07:36.992Z,100.00
2022-10-07T02:10:48.387Z,100.00
2022-10-07T02:13:41.361Z,100.00
2022-10-07T02:16:39.335Z,100.00
2022-10-07T02:19:35.684Z,100.00
2022-10-07T02:22:11.478Z,100.00
2022-10-07T02:24:48.204Z,100.00
2022-10-07T02:27:23.143Z,100.00
2022-10-07T02:30:11.730Z,100.00
2022-10-07T02:32:56.431Z,100.00
2022-10-07T02:35:40.017Z,100.00
2022-10-07T02:38:14.614Z,100.00
2022-10-07T02:41:34.319Z,100.00
2022-10-07T02:44:32.578Z,100.00
2022-10-07T02:47:32.295Z,100.00
2022-10-07T02:50:13.813Z,100.00
2022-10-07T02:53:07.920Z,100.00
2022-10-07T02:55:47.922Z,100.00
2022-10-07T02:58:28.229Z,100.00
2022-10-07T03:01:11.522Z,100.00
2022-10-07T03:03:54.791Z,100.00
2022-10-07T03:06:30.595Z,100.00
2022-10-07T03:09:09.538Z,100.00
2022-10-07T03:11:54.399Z,100.00
2022-10-07T03:14:28.784Z,100.00
2022-10-07T03:17:02.968Z,100.00
2022-10-07T03:19:40.149Z,100.00
2022-10-07T03:22:15.721Z,100.00
2022-10-07T03:24:54.661Z,100.00
2022-10-07T03:27:36.950Z,100.00
2022-10-07T03:30:12.259Z,100.00
2022-10-07T03:32:57.942Z,100.00
2022-10-07T03:35:49.386Z,100.00
2022-10-07T03:38:34.287Z,100.00
2022-10-07T03:41:15.152Z,100.00
2022-10-07T03:43:51.149Z,100.00
2022-10-07T03:46:32.097Z,100.00
2022-10-07T03:49:13.903Z,100.00
2022-10-07T03:51:48.885Z,100.00
2022-10-07T03:54:41.345Z,100.00
2022-10-07T03:57:43.065Z,100.00
2022-10-07T04:00:24.434Z,100.00
2022-10-07T04:03:11.678Z,100.00
2022-10-07T04:06:03.432Z,100.00
2022-10-07T04:08:55.753Z,100.00
2022-10-07T04:11:33.811Z,100.00
2022-10-07T04:14:23.394Z,100.00
2022-10-07T04:17:10.135Z,100.00
2022-10-07T04:19:43.413Z,100.00
2022-10-07T04:22:22.074Z,100.00
2022-10-07T04:25:21.231Z,100.00
2022-10-07T04:28:05.118Z,100.00
2022-10-07T04:30:40.006Z,100.00
2022-10-07T04:33:21.484Z,100.00
2022-10-07T04:36:06.706Z,100.00
2022-10-07T04:38:55.301Z,100.00
2022-10-07T04:41:42.444Z,100.00
2022-10-07T04:44:18.059Z,100.00
2022-10-07T04:47:15.476Z,100.00
2022-10-07T04:49:59.867Z,100.00
2022-10-07T04:52:40.458Z,100.00
2022-10-07T04:55:21.845Z,100.00
2022-10-07T04:58:06.320Z,100.00
2022-10-07T05:00:50.867Z,100.00
2022-10-07T05:03:32.767Z,100.00
2022-10-07T05:06:14.111Z,100.00
2022-10-07T05:08:53.162Z,100.00
2022-10-07T05:11:37.715Z,100.00
2022-10-07T05:14:27.861Z,100.00
2022-10-07T05:17:14.234Z,100.00
2022-10-07T05:19:52.399Z,100.00
2022-10-07T05:22:34.074Z,100.00
2022-10-07T05:25:16.778Z,100.00
2022-10-07T05:27:58.314Z,100.00
2022-10-07T05:30:42.057Z,100.00
2022-10-07T05:33:28.913Z,100.00
2022-10-07T05:36:08.997Z,100.00
2022-10-07T05:38:53.284Z,100.00
2022-10-07T05:41:31.512Z,100.00
2022-10-07T05:44:06.308Z,100.00
2022-10-07T05:46:56.137Z,100.00
2022-10-07T05:49:44.394Z,100.00
2022-10-07T05:52:25.302Z,100.00
2022-10-07T05:55:06.968Z,100.00
2022-10-07T05:57:47.743Z,100.00
2022-10-07T06:00:29.265Z,100.00
2022-10-07T06:03:10.305Z,100.00
2022-10-07T06:05:53.772Z,100.00
2022-10-07T06:08:37.729Z,100.00
2022-10-07T06:11:35.174Z,100.00
2022-10-07T06:14:16.412Z,100.00
2022-10-07T06:16:59.197Z,100.00
2022-10-07T06:22:24.783Z,100.00
2022-10-07T06:25:08.245Z,100.00
2022-10-07T06:27:46.439Z,100.00
2022-10-07T06:30:22.779Z,100.00
2022-10-07T06:32:56.502Z,100.00
2022-10-07T06:35:35.211Z,100.00
2022-10-07T06:38:10.496Z,100.00
2022-10-07T06:40:56.840Z,100.00
2022-10-07T06:43:36.570Z,100.00
2022-10-07T06:46:20.606Z,100.00
2022-10-07T06:48:58.942Z,100.00
2022-10-07T06:51:33.013Z,100.00
2022-10-07T06:54:11.368Z,100.00
2022-10-07T06:56:48.673Z,100.00
2022-10-07T06:59:21.209Z,100.00
2022-10-07T07:02:10.780Z,100.00
2022-10-07T07:04:44.790Z,100.00
2022-10-07T07:07:25.008Z,100.00
2022-10-07T07:10:01.029Z,100.00
2022-10-07T07:12:42.216Z,100.00
2022-10-07T07:15:18.498Z,100.00
2022-10-07T07:17:52.910Z,100.00
2022-10-07T07:20:35.359Z,100.00
2022-10-07T07:23:17.007Z,100.00
2022-10-07T07:25:55.417Z,100.00
2022-10-07T07:28:36.178Z,100.00
2022-10-07T07:31:18.424Z,100.00
2022-10-07T07:33:54.477Z,100.00
2022-10-07T07:36:36.340Z,100.00
2022-10-07T07:39:14.122Z,100.00
2022-10-07T07:41:51.339Z,100.00
2022-10-07T07:44:34.076Z,100.00
2022-10-07T07:47:17.998Z,100.00
2022-10-07T07:50:00.351Z,100.00
2022-10-07T07:52:36.968Z,100.00
2022-10-07T07:55:20.888Z,100.00
2022-10-07T07:57:53.807Z,100.00
2022-10-07T08:00:37.680Z,100.00
2022-10-07T08:03:14.342Z,100.00
2022-10-07T08:05:52.791Z,100.00
2022-10-07T08:08:30.125Z,100.00
2022-10-07T08:11:12.675Z,100.00
2022-10-07T08:13:52.411Z,100.00
2022-10-07T08:16:35.204Z,100.00
2022-10-07T08:19:04.692Z,100.00
2022-10-07T08:21:36.545Z,100.00
2022-10-07T08:24:33.576Z,100.00
2022-10-07T08:27:03.653Z,100.00
2022-10-07T08:29:47.774Z,100.00
2022-10-07T08:32:15.652Z,100.00
2022-10-07T08:34:52.481Z,100.00
2022-10-07T08:37:27.795Z,100.00
2022-10-07T08:40:00.557Z,100.00
2022-10-07T08:42:44.713Z,100.00
2022-10-07T08:45:34.625Z,100.00
2022-10-07T08:48:15.709Z,100.00
2022-10-07T08:51:12.651Z,100.00
2022-10-07T08:53:49.332Z,100.00
2022-10-07T08:56:24.248Z,100.00
2022-10-07T08:58:59.814Z,100.00
2022-10-07T09:01:42.659Z,100.00
2022-10-07T09:04:31.229Z,100.00
2022-10-07T09:07:33.206Z,99.36
2022-10-07T09:10:30.492Z,96.00
2022-10-07T09:13:08.910Z,94.96
2022-10-07T09:15:57.395Z,98.29
2022-10-07T09:18:35.335Z,94.81
2022-10-07T09:21:23.603Z,94.02
2022-10-07T09:24:15.441Z,91.42
2022-10-07T09:26:44.865Z,90.81
2022-10-07T09:29:25.653Z,89.76
2022-10-07T09:31:53.701Z,92.69
2022-10-07T09:34:35.285Z,92.62
2022-10-07T09:40:59.155Z,88.72
2022-10-07T09:43:44.445Z,88.79
2022-10-07T09:46:36.324Z,89.85
2022-10-07T09:49:07.586Z,85.69
2022-10-07T09:52:01.207Z,88.65
2022-10-07T09:54:40.707Z,85.50
2022-10-07T09:57:31.120Z,86.08
2022-10-07T10:00:15.831Z,85.75
2022-10-07T10:03:06.363Z,85.21
2022-10-07T10:05:58.100Z,82.92
2022-10-07T10:08:34.038Z,83.63
2022-10-07T10:11:34.615Z,83.90
2022-10-07T10:14:29.266Z,83.34
2022-10-07T10:17:06.820Z,84.20
2022-10-07T10:19:59.843Z,79.90
2022-10-07T10:22:37.672Z,79.82
2022-10-07T10:25:33.226Z,79.03
2022-10-07T10:28:17.596Z,80.32
2022-10-07T10:31:22.919Z,81.54
2022-10-07T10:34:29.221Z,80.20
2022-10-07T10:37:16.340Z,79.09
2022-10-07T10:40:13.927Z,82.26
2022-10-07T10:43:08.813Z,80.49
2022-10-07T10:45:55.235Z,78.55
2022-10-07T10:48:29.548Z,78.49
2022-10-07T10:51:35.377Z,78.10
2022-10-07T10:54:10.795Z,77.36
2022-10-07T10:57:02.171Z,79.79
2022-10-07T10:59:40.853Z,77.29
2022-10-07T11:02:38.075Z,78.83
2022-10-07T11:05:30.140Z,77.49
2022-10-07T11:08:27.537Z,78.42
2022-10-07T11:11:04.228Z,77.40
2022-10-07T11:14:03.709Z,77.48
2022-10-07T11:16:47.085Z,76.06
2022-10-07T11:19:24.042Z,77.33
2022-10-07T11:22:02.611Z,75.71
2022-10-07T11:24:45.729Z,78.75
2022-10-07T11:27:21.533Z,78.44
2022-10-07T11:30:08.164Z,76.90
2022-10-07T11:32:47.742Z,74.89
2022-10-07T11:35:28.204Z,74.58
2022-10-07T11:38:15.312Z,75.65
2022-10-07T11:41:08.552Z,77.88
2022-10-07T11:43:55.791Z,79.65
2022-10-07T11:46:41.660Z,76.54
2022-10-07T11:49:36.175Z,76.88
2022-10-07T11:52:38.038Z,76.83
2022-10-07T11:55:12.172Z,77.93
2022-10-07T11:58:02.919Z,76.42
2022-10-07T12:00:44.705Z,77.62
2022-10-07T12:03:25.190Z,76.90
2022-10-07T12:06:06.710Z,76.66
2022-10-07T12:08:50.728Z,77.42
2022-10-07T12:11:47.146Z,75.75
2022-10-07T12:14:35.432Z,76.81
2022-10-07T12:17:20.818Z,76.73
2022-10-07T12:20:46.370Z,73.44
2022-10-07T12:23:22.316Z,69.06
2022-10-07T12:26:27.018Z,72.80
2022-10-07T12:29:06.466Z,70.42
2022-10-07T12:31:49.363Z,68.74
2022-10-07T12:34:35.502Z,70.64
2022-10-07T12:37:49.913Z,69.20
2022-10-07T12:40:32.338Z,70.32
2022-10-07T12:43:30.984Z,70.85
2022-10-07T12:46:06.235Z,70.77
2022-10-07T12:48:45.027Z,68.70
2022-10-07T12:51:44.094Z,66.13
2022-10-07T12:54:33.881Z,65.22
2022-10-07T12:57:11.163Z,64.30
2022-10-07T13:00:02.243Z,65.26
2022-10-07T13:02:54.329Z,64.42
2022-10-07T13:05:58.753Z,63.44
2022-10-07T13:08:55.169Z,65.38
2022-10-07T13:11:47.874Z,62.43
2022-10-07T13:14:34.306Z,61.74
2022-10-07T13:17:47.356Z,63.85
2022-10-07T13:20:39.735Z,62.77
2022-10-07T13:23:23.211Z,62.21
2022-10-07T13:26:04.738Z,62.66
2022-10-07T13:28:44.226Z,61.93
2022-10-07T13:31:19.893Z,63.63
2022-10-07T13:33:56.179Z,62.79
2022-10-07T13:36:36.537Z,63.99
2022-10-07T13:39:18.389Z,63.09
2022-10-07T13:41:59.376Z,65.11
2022-10-07T13:44:37.884Z,66.84
2022-10-07T13:47:25.715Z,67.64
2022-10-07T13:50:02.498Z,67.21
2022-10-07T13:52:48.620Z,66.35
2022-10-07T13:55:35.786Z,67.31
2022-10-07T13:58:12.674Z,67.26
2022-10-07T14:00:53.563Z,65.70
2022-10-07T14:03:28.928Z,66.90
2022-10-07T14:05:56.518Z,66.14
2022-10-07T14:08:30.473Z,68.00
2022-10-07T14:11:15.189Z,68.59
2022-10-07T14:13:49.310Z,69.94
2022-10-07T14:16:26.934Z,69.50
2022-10-07T14:19:04.459Z,69.26
2022-10-07T14:21:41.310Z,70.34
2022-10-07T14:24:22.694Z,70.12
2022-10-07T14:27:06.950Z,71.88
2022-10-07T14:29:51.662Z,70.53
2022-10-07T14:32:43.418Z,71.91
2022-10-07T14:35:19.298Z,72.89
2022-10-07T14:37:55.990Z,71.28
2022-10-07T14:40:32.713Z,71.41
2022-10-07T14:43:18.326Z,73.19
2022-10-07T14:46:00.766Z,72.21
2022-10-07T14:48:52.137Z,73.84
2022-10-07T14:51:32.402Z,73.63
2022-10-07T14:54:19.320Z,76.50
2022-10-07T14:56:56.963Z,74.77
2022-10-07T14:59:35.536Z,75.96
2022-10-07T15:02:07.980Z,76.26
2022-10-07T15:04:52.304Z,77.95
2022-10-07T15:07:27.517Z,76.95
2022-10-07T15:10:02.959Z,77.70
2022-10-07T15:12:45.827Z,77.50
2022-10-07T15:15:35.808Z,77.39
2022-10-07T15:18:23.961Z,78.91
2022-10-07T15:21:05.995Z,78.64
2022-10-07T15:23:41.393Z,79.32
2022-10-07T15:26:30.034Z,78.52
2022-10-07T15:29:17.745Z,79.61
2022-10-07T15:32:00.619Z,81.46
2022-10-07T15:34:41.175Z,81.70
2022-10-07T15:37:19.674Z,83.31
2022-10-07T15:39:55.338Z,84.02
2022-10-07T15:42:44.788Z,84.60
2022-10-07T15:45:21.076Z,85.09
2022-10-07T15:48:00.621Z,86.38
2022-10-07T15:50:39.493Z,89.18
2022-10-07T15:53:15.390Z,90.12
2022-10-07T15:55:56.825Z,91.57
2022-10-07T15:58:30.505Z,93.16
2022-10-07T16:01:04.167Z,93.52
2022-10-07T16:03:49.882Z,94.07
2022-10-07T16:06:36.829Z,94.79
2022-10-07T16:09:31.228Z,96.26
2022-10-07T16:12:16.200Z,97.14
2022-10-07T16:14:59.218Z,98.30
2022-10-07T16:17:35.192Z,100.00
2022-10-07T16:20:21.259Z,100.00
2022-10-07T16:22:56.483Z,100.00
2022-10-07T16:25:37.971Z,100.00
2022-10-07T16:28:30.290Z,100.00
2022-10-07T16:31:08.802Z,100.00
2022-10-07T16:33:46.664Z,100.00
2022-10-07T16:36:44.715Z,100.00
2022-10-07T16:39:20.161Z,100.00
2022-10-07T16:42:01.316Z,100.00
2022-10-07T16:44:33.647Z,100.00
2022-10-07T16:47:17.945Z,100.00
2022-10-07T16:49:54.356Z,100.00
2022-10-07T16:52:37.447Z,100.00
2022-10-07T16:55:15.669Z,100.00
2022-10-07T16:57:55.176Z,100.00
2022-10-07T17:00:37.940Z,100.00
2022-10-07T17:03:13.332Z,100.00
2022-10-07T17:05:45.723Z,100.00
2022-10-07T17:08:24.846Z,100.00
2022-10-07T17:10:59.966Z,100.00
2022-10-07T17:13:38.152Z,100.00
2022-10-07T17:16:13.017Z,100.00
2022-10-07T17:18:53.669Z,100.00
2022-10-07T17:21:42.139Z,100.00
2022-10-07T17:24:22.391Z,100.00
2022-10-07T17:27:00.783Z,100.00
2022-10-07T17:29:39.057Z,100.00
2022-10-07T17:32:15.261Z,100.00
2022-10-07T17:34:50.708Z,100.00
2022-10-07T17:37:36.922Z,100.00
2022-10-07T17:40:13.035Z,100.00
2022-10-07T17:42:42.835Z,100.00
2022-10-07T17:45:15.762Z,100.00
2022-10-07T17:47:53.720Z,100.00
2022-10-07T17:50:39.194Z,100.00
2022-10-07T17:53:19.608Z,100.00
2022-10-07T17:55:52.788Z,100.00
2022-10-07T17:58:26.844Z,100.00
2022-10-07T18:01:10.867Z,100.00
2022-10-07T18:03:43.832Z,100.00
2022-10-07T18:06:42.646Z,100.00
2022-10-07T18:09:25.433Z,100.00
2022-10-07T18:12:16.419Z,100.00
2022-10-07T18:15:15.028Z,100.00
2022-10-07T18:17:57.324Z,100.00
2022-10-07T18:20:42.236Z,100.00
2022-10-07T18:23:18.338Z,100.00
2022-10-07T18:25:59.255Z,100.00
2022-10-07T18:28:53.975Z,100.00
2022-10-07T18:31:31.145Z,100.00
2022-10-07T18:34:06.709Z,100.00
2022-10-07T18:36:47.279Z,100.00
2022-10-07T18:42:26.913Z,100.00
2022-10-07T18:45:05.241Z,100.00
2022-10-07T18:47:41.681Z,100.00
2022-10-07T18:50:25.086Z,100.00
2022-10-07T18:53:06.942Z,100.00
2022-10-07T18:55:47.986Z,100.00
2022-10-07T18:58:30.190Z,100.00
2022-10-07T19:01:28.126Z,100.00
2022-10-07T19:04:05.356Z,100.00
2022-10-07T19:06:51.203Z,100.00
2022-10-07T19:09:26.491Z,100.00
2022-10-07T19:12:37.568Z,100.00
2022-10-07T19:15:16.214Z,100.00
2022-10-07T19:18:03.767Z,100.00
2022-10-07T19:20:43.404Z,100.00
2022-10-07T19:23:19.129Z,100.00
2022-10-07T19:25:55.046Z,100.00
2022-10-07T19:28:32.622Z,100.00
2022-10-07T19:31:26.011Z,100.00
2022-10-07T19:34:10.573Z,100.00
2022-10-07T19:36:47.046Z,100.00
2022-10-07T19:39:31.794Z,100.00
2022-10-07T19:42:12.548Z,100.00
2022-10-07T19:44:46.199Z,100.00
2022-10-07T19:47:26.601Z,100.00
2022-10-07T19:50:08.172Z,100.00
2022-10-07T19:52:47.867Z,100.00
2022-10-07T19:55:25.435Z,100.00
2022-10-07T19:58:07.898Z,100.00
2022-10-07T20:00:50.482Z,100.00
2022-10-07T20:03:24.830Z,100.00
2022-10-07T20:06:08.360Z,100.00
2022-10-07T20:08:46.647Z,100.00
2022-10-07T20:11:25.482Z,100.00
2022-10-07T20:14:07.980Z,100.00
2022-10-07T20:16:49.055Z,100.00
2022-10-07T20:19:31.081Z,100.00
2022-10-07T20:22:11.335Z,100.00
2022-10-07T20:24:54.944Z,100.00
2022-10-07T20:30:41.185Z,100.00
2022-10-07T20:33:20.159Z,100.00
2022-10-07T20:35:55.169Z,100.00
2022-10-07T20:38:55.700Z,100.00
2022-10-07T20:41:44.859Z,100.00
2022-10-07T20:44:20.408Z,100.00
2022-10-07T20:47:09.643Z,100.00
2022-10-07T20:49:47.950Z,100.00
2022-10-07T20:52:21.692Z,100.00
2022-10-07T20:54:59.244Z,100.00
2022-10-07T21:00:31.941Z,100.00
2022-10-07T21:03:13.425Z,100.00
2022-10-07T21:06:03.607Z,100.00
2022-10-07T21:08:36.247Z,100.00
2022-10-07T21:11:11.286Z,100.00
2022-10-07T21:13:51.243Z,100.00
2022-10-07T21:16:30.995Z,100.00
2022-10-07T21:19:04.158Z,100.00
2022-10-07T21:21:39.068Z,100.00
2022-10-07T21:24:11.691Z,100.00
2022-10-07T21:26:47.065Z,100.00
2022-10-07T21:29:24.907Z,100.00
2022-10-07T21:31:53.318Z,100.00
2022-10-07T21:37:46.395Z,100.00
2022-10-07T21:40:27.440Z,100.00
2022-10-07T21:43:12.294Z,100.00
2022-10-07T21:45:53.577Z,100.00
2022-10-07T21:48:40.789Z,100.00
2022-10-07T21:51:13.829Z,100.00
2022-10-07T21:53:59.014Z,100.00
2022-10-07T21:56:39.554Z,100.00
2022-10-07T21:59:26.985Z,100.00
2022-10-07T22:02:08.545Z,100.00
2022-10-07T22:04:53.542Z,100.00
2022-10-07T22:07:50.064Z,100.00
2022-10-07T22:10:29.967Z,100.00
2022-10-07T22:13:10.707Z,100.00
2022-10-07T22:15:44.184Z,100.00
2022-10-07T22:18:33.550Z,100.00
2022-10-07T22:21:26.469Z,100.00
2022-10-07T22:24:07.599Z,100.00
2022-10-07T22:26:53.684Z,100.00
2022-10-07T22:29:31.743Z,100.00
2022-10-07T22:32:10.380Z,100.00
2022-10-07T22:34:56.168Z,100.00
2022-10-07T22:37:33.963Z,100.00
2022-10-07T22:40:09.532Z,100.00
2022-10-07T22:43:08.894Z,100.00
2022-10-07T22:45:58.450Z,100.00
2022-10-07T22:48:45.883Z,100.00
2022-10-07T22:51:19.480Z,100.00
2022-10-07T22:53:57.981Z,100.00
2022-10-07T22:56:30.329Z,100.00
2022-10-07T22:59:15.314Z,100.00
2022-10-07T23:01:56.380Z,100.00
2022-10-07T23:04:31.600Z,100.00
2022-10-07T23:07:06.949Z,100.00
2022-10-07T23:09:57.537Z,100.00
2022-10-07T23:12:35.440Z,100.00
2022-10-07T23:15:16.539Z,100.00
2022-10-07T23:17:51.478Z,100.00
2022-10-07T23:20:39.476Z,100.00
2022-10-07T23:23:14.664Z,100.00
2022-10-07T23:25:50.265Z,100.00
2022-10-07T23:28:35.531Z,100.00
2022-10-07T23:31:21.525Z,100.00
2022-10-07T23:34:03.195Z,100.00
2022-10-07T23:36:34.916Z,100.00
2022-10-07T23:39:13.550Z,100.00
2022-10-07T23:41:48.956Z,100.00
2022-10-07T23:44:24.156Z,100.00
2022-10-07T23:47:02.724Z,100.00
2022-10-07T23:49:49.436Z,100.00
2022-10-07T23:52:27.880Z,100.00
2022-10-07T23:55:05.417Z,100.00
2022-10-07T23:57:37.480Z,100.00
